createdAt,value
2022-11-08T00:00:53.556Z,48.94
2022-11-08T00:01:53.787Z,48.93
2022-11-08T00:02:53.826Z,48.96
2022-11-08T00:03:53.871Z,48.95
2022-11-08T00:04:53.925Z,48.96
2022-11-08T00:05:54.109Z,48.99
2022-11-08T00:06:54.096Z,48.98
2022-11-08T00:07:54.183Z,48.98
2022-11-08T00:09:00.231Z,48.96
2022-11-08T00:09:54.335Z,49.00
2022-11-08T00:10:54.425Z,49.02
2022-11-08T00:11:54.594Z,48.99
2022-11-08T00:12:54.559Z,49.01
2022-11-08T00:13:54.648Z,49.00
2022-11-08T00:14:54.740Z,49.02
2022-11-08T00:15:54.826Z,49.02
2022-11-08T00:16:54.892Z,49.00
2022-11-08T00:17:54.978Z,49.00
2022-11-08T00:18:55.068Z,48.99
2022-11-08T00:19:55.155Z,48.98
2022-11-08T00:20:55.252Z,49.00
2022-11-08T00:21:55.313Z,49.00
2022-11-08T00:22:55.406Z,49.00
2022-11-08T00:23:55.592Z,49.00
2022-11-08T00:24:55.565Z,49.00
2022-11-08T00:25:55.649Z,49.02
2022-11-08T00:26:55.737Z,49.03
2022-11-08T00:27:55.815Z,49.02
2022-11-08T00:28:55.896Z,49.02
2022-11-08T00:29:56.008Z,49.03
2022-11-08T00:30:56.059Z,49.04
2022-11-08T00:31:56.142Z,49.05
2022-11-08T00:32:56.239Z,49.06
2022-11-08T00:33:56.300Z,49.05
2022-11-08T00:34:56.410Z,49.05
2022-11-08T00:35:56.485Z,49.06
2022-11-08T00:36:56.569Z,49.05
2022-11-08T00:37:56.656Z,49.05
2022-11-08T00:38:56.730Z,49.05
2022-11-08T00:40:02.799Z,49.03
2022-11-08T00:40:56.926Z,49.06
2022-11-08T00:41:57.123Z,49.08
2022-11-08T00:42:57.092Z,49.06
2022-11-08T00:43:57.158Z,49.06
2022-11-08T00:44:57.289Z,49.03
2022-11-08T00:45:57.337Z,49.04
2022-11-08T00:46:57.417Z,49.02
2022-11-08T00:47:57.604Z,49.04
2022-11-08T00:48:57.576Z,49.03
2022-11-08T00:49:57.653Z,49.04
2022-11-08T00:50:57.729Z,49.06
2022-11-08T00:51:57.825Z,49.06
2022-11-08T00:52:57.914Z,49.06
2022-11-08T00:53:58.104Z,49.08
2022-11-08T00:54:58.083Z,49.07
2022-11-08T00:55:58.164Z,49.07
2022-11-08T00:56:58.266Z,49.09
2022-11-08T00:58:00.110Z,49.07
2022-11-08T00:58:58.409Z,49.10
2022-11-08T00:59:58.500Z,49.10
2022-11-08T01:00:58.588Z,49.12
2022-11-08T01:01:58.803Z,49.10
2022-11-08T01:02:58.723Z,49.10
2022-11-08T01:03:58.814Z,49.12
2022-11-08T01:04:58.924Z,49.12
2022-11-08T01:05:59.028Z,49.12
2022-11-08T01:06:59.069Z,49.12
2022-11-08T01:07:59.134Z,49.13
2022-11-08T01:08:59.217Z,49.12
2022-11-08T01:09:59.293Z,49.12
2022-11-08T01:11:05.700Z,49.12
2022-11-08T01:11:59.447Z,49.13
2022-11-08T01:12:59.529Z,49.13
2022-11-08T01:13:59.625Z,49.12
2022-11-08T01:14:59.742Z,49.17
2022-11-08T01:15:59.761Z,49.14
2022-11-08T01:16:59.864Z,49.12
2022-11-08T01:17:59.953Z,49.10
2022-11-08T01:19:00.012Z,49.14
2022-11-08T01:20:00.143Z,49.15
2022-11-08T01:21:00.180Z,49.17
2022-11-08T01:22:00.265Z,49.18
2022-11-08T01:23:00.356Z,49.16
2022-11-08T01:24:00.426Z,49.15
2022-11-08T01:25:00.509Z,49.14
2022-11-08T01:26:00.589Z,49.15
2022-11-08T01:27:00.672Z,49.15
2022-11-08T01:28:00.782Z,49.15
2022-11-08T01:29:00.858Z,49.16
2022-11-08T01:30:00.955Z,49.15
2022-11-08T01:31:01.033Z,49.14
2022-11-08T01:32:01.134Z,49.14
2022-11-08T01:33:01.219Z,49.16
2022-11-08T01:34:01.328Z,49.16
2022-11-08T01:35:01.407Z,49.20
2022-11-08T01:36:01.489Z,49.19
2022-11-08T01:37:01.567Z,49.21
2022-11-08T01:38:01.642Z,49.19
2022-11-08T01:39:01.856Z,49.17
2022-11-08T01:40:01.832Z,49.18
2022-11-08T01:41:01.927Z,49.18
2022-11-08T01:42:08.519Z,49.20
2022-11-08T01:43:02.097Z,49.23
2022-11-08T01:44:02.187Z,49.16
2022-11-08T01:45:02.373Z,49.18
2022-11-08T01:46:02.353Z,49.16
2022-11-08T01:47:02.438Z,49.15
2022-11-08T01:48:02.530Z,49.16
2022-11-08T01:49:02.610Z,49.16
2022-11-08T01:50:02.720Z,49.15
2022-11-08T01:51:02.795Z,49.19
2022-11-08T01:52:02.890Z,49.19
2022-11-08T01:53:02.972Z,49.20
2022-11-08T01:54:03.043Z,49.21
2022-11-08T01:55:03.145Z,49.20
2022-11-08T01:56:03.252Z,49.20
2022-11-08T01:57:03.332Z,49.22
2022-11-08T01:58:03.423Z,49.20
2022-11-08T01:59:03.537Z,49.19
2022-11-08T02:00:03.578Z,49.20
2022-11-08T02:01:03.807Z,49.18
2022-11-08T02:02:03.837Z,49.17
2022-11-08T02:03:03.836Z,49.20
2022-11-08T02:04:03.927Z,49.21
2022-11-08T02:05:04.001Z,49.23
2022-11-08T02:06:04.093Z,49.20
2022-11-08T02:07:04.277Z,49.18
2022-11-08T02:08:04.254Z,49.19
2022-11-08T02:09:04.326Z,49.21
2022-11-08T02:10:04.436Z,49.21
2022-11-08T02:11:04.523Z,49.23
2022-11-08T02:12:04.732Z,49.23
2022-11-08T02:13:14.394Z,49.24
2022-11-08T02:14:04.798Z,49.29
2022-11-08T02:15:04.898Z,49.27
2022-11-08T02:16:04.981Z,49.24
2022-11-08T02:17:05.083Z,49.27
2022-11-08T02:18:05.270Z,49.26
2022-11-08T02:19:05.246Z,49.24
2022-11-08T02:20:05.329Z,49.23
2022-11-08T02:21:05.405Z,49.20
2022-11-08T02:22:05.485Z,49.22
2022-11-08T02:23:05.669Z,49.24
2022-11-08T02:24:05.640Z,49.24
2022-11-08T02:25:05.699Z,49.26
2022-11-08T02:26:05.781Z,49.24
2022-11-08T02:27:05.867Z,49.26
2022-11-08T02:28:05.971Z,49.24
2022-11-08T02:29:06.171Z,49.23
2022-11-08T02:30:06.142Z,49.27
2022-11-08T02:31:06.227Z,49.24
2022-11-08T02:32:06.300Z,49.24
2022-11-08T02:33:06.378Z,49.24
2022-11-08T02:34:06.562Z,49.27
2022-11-08T02:35:06.538Z,49.27
2022-11-08T02:36:06.616Z,49.28
2022-11-08T02:37:06.697Z,49.29
2022-11-08T02:38:06.783Z,49.28
2022-11-08T02:39:06.870Z,49.27
2022-11-08T02:40:07.057Z,49.28
2022-11-08T02:41:07.050Z,49.28
2022-11-08T02:42:07.129Z,49.29
2022-11-08T02:43:07.226Z,49.28
2022-11-08T02:44:13.282Z,49.28
2022-11-08T02:45:07.424Z,49.31
2022-11-08T02:46:07.619Z,49.26
2022-11-08T02:47:07.609Z,49.28
2022-11-08T02:48:07.686Z,49.26
2022-11-08T02:49:07.785Z,49.26
2022-11-08T02:50:07.854Z,49.28
2022-11-08T02:51:07.944Z,49.27
2022-11-08T02:52:08.116Z,49.26
2022-11-08T02:53:08.119Z,49.28
2022-11-08T02:54:08.192Z,49.28
2022-11-08T02:55:08.278Z,49.28
2022-11-08T02:56:08.349Z,49.26
2022-11-08T02:57:08.438Z,49.28
2022-11-08T02:58:08.615Z,49.27
2022-11-08T02:59:08.595Z,49.27
2022-11-08T03:00:08.669Z,49.26
2022-11-08T03:01:08.792Z,49.27
2022-11-08T03:02:08.925Z,49.27
2022-11-08T03:03:08.910Z,49.27
2022-11-08T03:04:09.101Z,49.28
2022-11-08T03:05:09.061Z,49.30
2022-11-08T03:06:09.137Z,49.28
2022-11-08T03:07:09.197Z,49.31
2022-11-08T03:08:09.280Z,49.29
2022-11-08T03:09:09.378Z,49.31
2022-11-08T03:10:09.536Z,49.30
2022-11-08T03:11:09.501Z,49.29
2022-11-08T03:12:09.595Z,49.29
2022-11-08T03:13:09.687Z,49.29
2022-11-08T03:14:09.763Z,49.28
2022-11-08T03:15:16.277Z,49.29
2022-11-08T03:16:09.928Z,49.33
2022-11-08T03:17:10.000Z,49.31
2022-11-08T03:18:10.074Z,49.31
2022-11-08T03:19:10.151Z,49.32
2022-11-08T03:20:10.235Z,49.32
2022-11-08T03:21:10.409Z,49.35
2022-11-08T03:22:10.401Z,49.32
2022-11-08T03:23:10.450Z,49.31
2022-11-08T03:24:10.530Z,49.31
2022-11-08T03:25:10.623Z,49.28
2022-11-08T03:26:10.819Z,49.28
2022-11-08T03:27:10.769Z,49.29
2022-11-08T03:28:10.853Z,49.29
2022-11-08T03:29:10.928Z,49.30
2022-11-08T03:30:11.012Z,49.32
2022-11-08T03:31:11.117Z,49.32
2022-11-08T03:32:11.326Z,49.33
2022-11-08T03:33:11.294Z,49.35
2022-11-08T03:34:11.391Z,49.33
2022-11-08T03:35:11.480Z,49.33
2022-11-08T03:36:11.557Z,49.33
2022-11-08T03:37:11.781Z,49.33
2022-11-08T03:38:11.735Z,49.33
2022-11-08T03:39:11.821Z,49.33
2022-11-08T03:40:11.888Z,49.33
2022-11-08T03:41:11.992Z,49.31
2022-11-08T03:42:12.084Z,49.34
2022-11-08T03:43:12.276Z,49.32
2022-11-08T03:44:12.251Z,49.33
2022-11-08T03:45:12.326Z,49.33
2022-11-08T03:46:18.389Z,49.32
2022-11-08T03:47:12.485Z,49.36
2022-11-08T03:48:12.597Z,49.34
2022-11-08T03:49:12.669Z,49.37
2022-11-08T03:50:12.750Z,49.36
2022-11-08T03:51:12.835Z,49.34
2022-11-08T03:52:12.911Z,49.33
2022-11-08T03:53:12.996Z,49.33
2022-11-08T03:54:13.204Z,49.34
2022-11-08T03:55:13.183Z,49.36
2022-11-08T03:56:13.256Z,49.36
2022-11-08T03:57:13.334Z,49.34
2022-11-08T03:58:13.435Z,49.38
2022-11-08T03:59:13.547Z,49.36
2022-11-08T04:00:13.630Z,49.35
2022-11-08T04:01:13.750Z,49.34
2022-11-08T04:02:13.980Z,49.34
2022-11-08T04:03:13.873Z,49.36
2022-11-08T04:04:13.955Z,49.36
2022-11-08T04:05:14.050Z,49.37
2022-11-08T04:06:14.118Z,49.37
2022-11-08T04:07:14.196Z,49.36
2022-11-08T04:08:14.401Z,49.39
2022-11-08T04:09:19.020Z,49.38
2022-11-08T04:10:14.566Z,49.44
2022-11-08T04:11:14.534Z,49.42
2022-11-08T04:12:14.620Z,49.40
2022-11-08T04:13:14.704Z,49.36
2022-11-08T04:14:14.792Z,49.35
2022-11-08T04:15:14.885Z,49.33
2022-11-08T04:16:17.886Z,49.33
2022-11-08T04:17:21.002Z,49.37
2022-11-08T04:18:15.481Z,49.40
2022-11-08T04:19:15.206Z,49.40
2022-11-08T04:20:15.292Z,49.41
2022-11-08T04:21:15.385Z,49.42
2022-11-08T04:22:15.472Z,49.40
2022-11-08T04:23:15.561Z,49.39
2022-11-08T04:24:15.634Z,49.40
2022-11-08T04:25:15.719Z,49.40
2022-11-08T04:26:15.817Z,49.38
2022-11-08T04:27:15.910Z,49.39
2022-11-08T04:28:16.452Z,49.41
2022-11-08T04:29:16.065Z,49.42
2022-11-08T04:30:16.146Z,49.40
2022-11-08T04:31:16.236Z,49.39
2022-11-08T04:32:16.326Z,49.40
2022-11-08T04:33:16.410Z,49.38
2022-11-08T04:34:16.492Z,49.41
2022-11-08T04:35:16.562Z,49.41
2022-11-08T04:36:16.671Z,49.44
2022-11-08T04:37:16.783Z,49.42
2022-11-08T04:38:17.163Z,49.41
2022-11-08T04:39:16.896Z,49.42
2022-11-08T04:40:16.997Z,49.42
2022-11-08T04:41:17.079Z,49.42
2022-11-08T04:42:17.137Z,49.42
2022-11-08T04:43:17.240Z,49.44
2022-11-08T04:44:17.311Z,49.42
2022-11-08T04:45:17.401Z,49.43
2022-11-08T04:46:17.566Z,49.41
2022-11-08T04:47:17.537Z,49.40
2022-11-08T04:48:23.573Z,49.43
2022-11-08T04:49:17.705Z,49.47
2022-11-08T04:50:17.788Z,49.44
2022-11-08T04:51:17.867Z,49.43
2022-11-08T04:52:17.964Z,49.45
2022-11-08T04:53:18.034Z,49.45
2022-11-08T04:54:18.123Z,49.42
2022-11-08T04:55:18.214Z,49.45
2022-11-08T04:56:18.295Z,49.45
2022-11-08T04:57:18.382Z,49.45
2022-11-08T04:58:18.809Z,49.44
2022-11-08T04:59:18.571Z,49.47
2022-11-08T05:00:18.641Z,49.47
2022-11-08T05:01:18.785Z,49.47
2022-11-08T05:02:18.907Z,49.45
2022-11-08T05:03:18.907Z,49.45
2022-11-08T05:04:19.082Z,49.43
2022-11-08T05:05:19.060Z,49.43
2022-11-08T05:06:19.135Z,49.46
2022-11-08T05:07:19.201Z,49.42
2022-11-08T05:08:19.775Z,49.42
2022-11-08T05:09:19.344Z,49.42
2022-11-08T05:10:19.441Z,49.45
2022-11-08T05:11:19.521Z,49.51
2022-11-08T05:12:19.621Z,49.41
2022-11-08T05:13:19.711Z,49.26
2022-11-08T05:14:19.784Z,49.17
2022-11-08T05:15:19.883Z,49.12
2022-11-08T05:16:19.956Z,49.04
2022-11-08T05:17:20.013Z,48.99
2022-11-08T05:18:20.426Z,48.93
2022-11-08T05:19:26.182Z,48.95
2022-11-08T05:20:20.309Z,48.88
2022-11-08T05:21:20.484Z,48.80
2022-11-08T05:22:20.482Z,48.77
2022-11-08T05:23:20.551Z,48.74
2022-11-08T05:24:20.630Z,48.70
2022-11-08T05:25:20.705Z,48.67
2022-11-08T05:26:20.816Z,48.71
2022-11-08T05:27:20.868Z,48.60
2022-11-08T05:28:21.078Z,48.56
2022-11-08T05:29:21.009Z,48.59
2022-11-08T05:30:21.107Z,48.55
2022-11-08T05:31:21.152Z,48.49
2022-11-08T05:32:21.233Z,48.51
2022-11-08T05:33:21.405Z,48.49
2022-11-08T05:34:21.419Z,48.43
2022-11-08T05:35:21.477Z,48.44
2022-11-08T05:36:21.570Z,48.44
2022-11-08T05:37:21.655Z,48.44
2022-11-08T05:38:21.928Z,48.49
2022-11-08T05:39:21.798Z,48.42
2022-11-08T05:40:21.876Z,48.40
2022-11-08T05:41:21.953Z,48.37
2022-11-08T05:42:22.023Z,48.36
2022-11-08T05:43:22.126Z,48.37
2022-11-08T05:44:22.223Z,48.39
2022-11-08T05:45:22.264Z,48.36
2022-11-08T05:46:22.328Z,48.38
2022-11-08T05:47:22.408Z,48.35
2022-11-08T05:48:22.455Z,48.34
2022-11-08T05:49:22.639Z,48.32
2022-11-08T05:50:28.579Z,48.31
2022-11-08T05:51:22.707Z,48.34
2022-11-08T05:52:22.775Z,48.33
2022-11-08T05:53:22.884Z,48.37
2022-11-08T05:54:22.937Z,48.40
2022-11-08T05:55:23.110Z,48.30
2022-11-08T05:56:23.088Z,48.39
2022-11-08T05:57:23.153Z,48.29
2022-11-08T05:58:23.227Z,48.29
2022-11-08T05:59:23.313Z,48.24
2022-11-08T06:00:23.395Z,48.23
2022-11-08T06:01:23.500Z,48.24
2022-11-08T06:02:23.696Z,48.26
2022-11-08T06:03:24.185Z,48.27
2022-11-08T06:04:23.717Z,48.28
2022-11-08T06:05:24.664Z,48.25
2022-11-08T06:06:23.898Z,48.23
2022-11-08T06:07:24.003Z,48.20
2022-11-08T06:08:24.064Z,48.23
2022-11-08T06:09:24.144Z,48.23
2022-11-08T06:10:24.228Z,48.20
2022-11-08T06:11:24.302Z,48.20
2022-11-08T06:12:24.377Z,48.18
2022-11-08T06:13:24.495Z,48.20
2022-11-08T06:14:24.571Z,48.19
2022-11-08T06:15:24.646Z,48.19
2022-11-08T06:16:24.756Z,48.19
2022-11-08T06:17:26.324Z,48.20
2022-11-08T06:18:24.917Z,48.20
2022-11-08T06:19:25.016Z,48.19
2022-11-08T06:20:25.092Z,48.21
2022-11-08T06:21:31.171Z,48.19
2022-11-08T06:22:25.281Z,48.20
2022-11-08T06:23:25.368Z,48.19
2022-11-08T06:24:25.586Z,48.16
2022-11-08T06:25:25.551Z,48.15
2022-11-08T06:26:25.670Z,48.13
2022-11-08T06:27:25.749Z,48.14
2022-11-08T06:28:25.833Z,48.16
2022-11-08T06:29:25.917Z,48.11
2022-11-08T06:30:26.101Z,48.15
2022-11-08T06:31:26.072Z,48.12
2022-11-08T06:32:26.156Z,48.09
2022-11-08T06:33:26.244Z,48.09
2022-11-08T06:34:26.325Z,48.08
2022-11-08T06:35:26.409Z,48.05
2022-11-08T06:36:26.503Z,48.08
2022-11-08T06:37:26.567Z,48.10
2022-11-08T06:38:26.642Z,48.07
2022-11-08T06:39:26.728Z,48.05
2022-11-08T06:40:26.798Z,48.02
2022-11-08T06:41:26.884Z,48.02
2022-11-08T06:42:26.982Z,48.02
2022-11-08T06:43:27.445Z,48.00
2022-11-08T06:44:27.126Z,48.00
2022-11-08T06:45:27.212Z,47.99
2022-11-08T06:46:27.288Z,47.99
2022-11-08T06:47:27.373Z,47.99
2022-11-08T06:48:32.394Z,47.97
2022-11-08T06:49:27.555Z,48.00
2022-11-08T06:50:27.637Z,47.99
2022-11-08T06:51:27.716Z,47.97
2022-11-08T06:52:33.801Z,47.94
2022-11-08T06:53:27.918Z,47.97
2022-11-08T06:54:28.028Z,47.94
2022-11-08T06:55:28.075Z,47.92
2022-11-08T06:56:28.144Z,47.96
2022-11-08T06:57:28.220Z,47.91
2022-11-08T06:58:28.305Z,47.90
2022-11-08T06:59:28.385Z,47.90
2022-11-08T07:00:28.607Z,47.89
2022-11-08T07:01:28.683Z,47.90
2022-11-08T07:02:28.822Z,47.90
2022-11-08T07:03:28.730Z,47.93
2022-11-08T07:04:28.815Z,47.89
2022-11-08T07:05:28.897Z,47.88
2022-11-08T07:06:29.054Z,47.87
2022-11-08T07:07:29.037Z,47.90
2022-11-08T07:08:29.121Z,47.87
2022-11-08T07:09:29.200Z,47.86
2022-11-08T07:10:29.345Z,47.11
2022-11-08T07:11:29.355Z,45.99
2022-11-08T07:12:29.638Z,46.53
2022-11-08T07:13:29.514Z,46.87
2022-11-08T07:14:29.609Z,46.77
2022-11-08T07:15:29.717Z,46.60
2022-11-08T07:16:29.805Z,46.38
2022-11-08T07:17:34.324Z,46.60
2022-11-08T07:18:30.102Z,46.75
2022-11-08T07:19:30.064Z,46.86
2022-11-08T07:20:30.208Z,46.62
2022-11-08T07:21:30.230Z,46.86
2022-11-08T07:22:30.333Z,47.00
2022-11-08T07:23:36.528Z,47.05
2022-11-08T07:24:30.498Z,47.01
2022-11-08T07:25:30.570Z,46.97
2022-11-08T07:26:30.650Z,47.00
2022-11-08T07:27:30.734Z,46.92
2022-11-08T07:28:30.834Z,46.93
2022-11-08T07:29:31.029Z,46.98
2022-11-08T07:30:30.994Z,47.02
2022-11-08T07:31:31.075Z,47.06
2022-11-08T07:32:31.169Z,47.13
2022-11-08T07:33:31.263Z,47.10
2022-11-08T07:34:31.366Z,47.12
2022-11-08T07:35:31.432Z,47.11
2022-11-08T07:36:31.489Z,47.10
2022-11-08T07:37:31.573Z,47.16
2022-11-08T07:38:31.670Z,47.11
2022-11-08T07:39:31.748Z,47.08
2022-11-08T07:40:31.854Z,47.09
2022-11-08T07:41:31.936Z,47.04
2022-11-08T07:42:56.775Z,47.10
2022-11-08T07:43:32.120Z,47.19
2022-11-08T07:44:32.192Z,47.13
2022-11-08T07:45:32.282Z,47.02
2022-11-08T07:46:32.406Z,45.04
2022-11-08T07:47:32.435Z,45.25
2022-11-08T07:48:32.521Z,45.57
2022-11-08T07:49:32.628Z,45.83
2022-11-08T07:50:32.708Z,45.80
2022-11-08T07:51:32.906Z,46.30
2022-11-08T07:52:32.832Z,46.22
2022-11-08T07:53:32.930Z,46.32
2022-11-08T07:54:38.981Z,46.37
2022-11-08T07:55:33.114Z,46.53
2022-11-08T07:56:33.201Z,46.72
2022-11-08T07:57:33.384Z,46.71
2022-11-08T07:58:33.351Z,46.76
2022-11-08T07:59:33.454Z,46.69
2022-11-08T08:00:33.540Z,46.74
2022-11-08T08:01:33.666Z,46.96
2022-11-08T08:02:33.746Z,46.96
2022-11-08T08:03:33.830Z,46.81
2022-11-08T08:04:33.861Z,46.74
2022-11-08T08:05:33.925Z,46.93
2022-11-08T08:06:34.027Z,47.01
2022-11-08T08:07:34.119Z,46.99
2022-11-08T08:08:34.247Z,47.06
2022-11-08T08:09:34.280Z,47.09
2022-11-08T08:10:34.365Z,46.75
2022-11-08T08:11:34.456Z,47.02
2022-11-08T08:12:34.559Z,46.68
2022-11-08T08:13:34.743Z,46.96
2022-11-08T08:14:34.715Z,46.85
2022-11-08T08:15:34.804Z,46.57
2022-11-08T08:16:34.884Z,46.77
2022-11-08T08:17:34.950Z,46.62
2022-11-08T08:18:35.026Z,46.60
2022-11-08T08:19:35.214Z,46.70
2022-11-08T08:20:35.187Z,46.62
2022-11-08T08:21:35.265Z,46.37
2022-11-08T08:22:35.367Z,46.29
2022-11-08T08:23:35.448Z,46.54
2022-11-08T08:24:35.643Z,46.28
2022-11-08T08:25:41.593Z,47.42
2022-11-08T08:26:35.708Z,46.97
2022-11-08T08:27:35.784Z,46.80
2022-11-08T08:28:35.877Z,46.86
2022-11-08T08:29:35.966Z,46.71
2022-11-08T08:30:36.070Z,46.64
2022-11-08T08:31:36.125Z,46.71
2022-11-08T08:32:36.183Z,46.50
2022-11-08T08:33:36.614Z,46.49
2022-11-08T08:34:36.336Z,46.62
2022-11-08T08:35:36.415Z,46.30
2022-11-08T08:36:36.517Z,46.24
2022-11-08T08:37:36.574Z,46.18
2022-11-08T08:38:41.458Z,46.20
2022-11-08T08:39:36.724Z,46.14
2022-11-08T08:40:36.788Z,46.00
2022-11-08T08:41:36.865Z,46.12
2022-11-08T08:42:37.029Z,46.32
2022-11-08T08:43:37.002Z,45.99
2022-11-08T08:44:37.091Z,45.87
2022-11-08T08:45:37.200Z,45.79
2022-11-08T08:46:37.286Z,45.73
2022-11-08T08:47:37.375Z,45.80
2022-11-08T08:48:37.523Z,45.72
2022-11-08T08:49:37.494Z,45.76
2022-11-08T08:50:37.580Z,45.94
2022-11-08T08:51:37.661Z,45.86
2022-11-08T08:52:37.745Z,45.66
2022-11-08T08:53:37.829Z,45.67
2022-11-08T08:54:38.023Z,45.82
2022-11-08T08:55:37.995Z,45.95
2022-11-08T08:56:44.046Z,45.92
2022-11-08T08:57:38.141Z,46.18
2022-11-08T08:58:38.782Z,46.02
2022-11-08T09:01:38.769Z,45.79
2022-11-08T09:02:41.388Z,45.80
2022-11-08T09:03:38.651Z,45.82
2022-11-08T09:04:38.724Z,45.75
2022-11-08T09:05:38.801Z,45.94
2022-11-08T09:06:39.034Z,46.02
2022-11-08T09:07:38.963Z,45.96
2022-11-08T09:08:39.049Z,45.87
2022-11-08T09:09:39.126Z,45.83
2022-11-08T09:10:39.207Z,45.82
2022-11-08T09:11:39.305Z,45.98
2022-11-08T09:12:39.409Z,45.85
2022-11-08T09:13:39.488Z,45.89
2022-11-08T09:14:39.574Z,45.94
2022-11-08T09:15:39.719Z,46.01
2022-11-08T09:16:39.738Z,45.86
2022-11-08T09:17:39.838Z,45.95
2022-11-08T09:18:39.908Z,45.90
2022-11-08T09:19:39.970Z,45.91
2022-11-08T09:20:40.066Z,46.00
2022-11-08T09:21:40.220Z,45.80
2022-11-08T09:22:40.250Z,45.75
2022-11-08T09:23:40.419Z,45.79
2022-11-08T09:24:40.392Z,45.80
2022-11-08T09:25:40.471Z,45.89
2022-11-08T09:26:40.560Z,45.91
2022-11-08T09:27:46.622Z,45.83
2022-11-08T09:28:40.737Z,45.79
2022-11-08T09:29:40.807Z,45.86
2022-11-08T09:30:40.895Z,45.83
2022-11-08T09:31:40.980Z,45.87
2022-11-08T09:33:41.191Z,45.89
2022-11-08T09:34:41.359Z,45.84
2022-11-08T09:35:41.337Z,45.80
2022-11-08T09:36:41.413Z,45.81
2022-11-08T09:37:44.273Z,45.90
2022-11-08T09:38:41.564Z,45.97
2022-11-08T09:39:41.671Z,45.87
2022-11-08T09:40:41.718Z,45.80
2022-11-08T09:41:41.816Z,45.77
2022-11-08T09:42:41.897Z,45.70
2022-11-08T09:43:41.975Z,45.69
2022-11-08T09:44:42.088Z,45.74
2022-11-08T09:45:42.199Z,45.77
2022-11-08T09:46:42.249Z,45.80
2022-11-08T09:47:42.337Z,45.97
2022-11-08T09:48:42.413Z,45.95
2022-11-08T09:49:42.496Z,45.96
2022-11-08T09:50:42.601Z,45.78
2022-11-08T09:51:42.663Z,45.76
2022-11-08T09:52:42.754Z,45.75
2022-11-08T09:53:42.837Z,46.03
2022-11-08T09:54:42.903Z,45.92
2022-11-08T09:55:42.988Z,45.87
2022-11-08T09:56:43.219Z,45.83
2022-11-08T09:57:43.166Z,45.88
2022-11-08T09:58:49.227Z,45.82
2022-11-08T09:59:43.318Z,45.83
2022-11-08T10:00:43.400Z,45.88
2022-11-08T10:01:43.547Z,45.89
2022-11-08T10:02:43.566Z,45.89
2022-11-08T10:03:43.652Z,45.97
2022-11-08T10:04:43.737Z,46.03
2022-11-08T10:05:43.820Z,46.10
2022-11-08T10:06:43.950Z,46.15
2022-11-08T10:07:44.065Z,46.22
2022-11-08T10:08:44.069Z,46.36
2022-11-08T10:09:44.149Z,46.20
2022-11-08T10:10:44.241Z,46.23
2022-11-08T10:11:44.345Z,46.16
2022-11-08T10:12:44.442Z,46.11
2022-11-08T10:13:44.611Z,45.78
2022-11-08T10:14:52.584Z,45.93
2022-11-08T10:15:44.658Z,45.73
2022-11-08T10:16:44.736Z,46.04
2022-11-08T10:17:44.808Z,46.04
2022-11-08T10:18:44.898Z,45.72
2022-11-08T10:19:45.098Z,45.98
2022-11-08T10:20:45.106Z,46.06
2022-11-08T10:21:45.159Z,45.81
2022-11-08T10:22:45.244Z,45.78
2022-11-08T10:23:45.335Z,46.04
2022-11-08T10:24:45.426Z,45.68
2022-11-08T10:25:45.620Z,45.69
2022-11-08T10:26:45.607Z,45.70
2022-11-08T10:27:45.660Z,45.82
2022-11-08T10:28:45.720Z,45.64
2022-11-08T10:29:51.788Z,45.55
2022-11-08T10:30:46.000Z,45.75
2022-11-08T10:31:46.003Z,45.65
2022-11-08T10:32:46.069Z,45.41
2022-11-08T10:33:46.123Z,45.52
2022-11-08T10:34:46.211Z,45.34
2022-11-08T10:35:46.288Z,45.32
2022-11-08T10:36:46.398Z,45.28
2022-11-08T10:37:46.495Z,45.31
2022-11-08T10:38:46.591Z,45.29
2022-11-08T10:39:46.715Z,45.32
2022-11-08T10:40:46.753Z,45.33
2022-11-08T10:41:46.854Z,45.29
2022-11-08T10:42:46.940Z,45.29
2022-11-08T10:43:47.111Z,45.33
2022-11-08T10:44:47.082Z,45.30
2022-11-08T10:45:47.163Z,45.25
2022-11-08T10:46:47.235Z,45.22
2022-11-08T10:47:47.316Z,45.39
2022-11-08T10:48:47.403Z,45.37
2022-11-08T10:49:47.503Z,45.42
2022-11-08T10:50:47.591Z,45.36
2022-11-08T10:51:47.673Z,45.32
2022-11-08T10:52:47.743Z,45.41
2022-11-08T10:53:47.875Z,45.46
2022-11-08T10:54:47.970Z,45.29
2022-11-08T10:55:48.049Z,45.33
2022-11-08T10:56:48.112Z,45.38
2022-11-08T10:57:48.260Z,45.37
2022-11-08T10:58:48.270Z,45.29
2022-11-08T10:59:48.349Z,45.30
2022-11-08T11:00:54.544Z,45.33
2022-11-08T11:01:48.544Z,45.37
2022-11-08T11:02:48.548Z,45.38
2022-11-08T11:03:48.629Z,45.39
2022-11-08T11:04:48.716Z,45.36
2022-11-08T11:05:48.817Z,45.36
2022-11-08T11:06:49.048Z,45.35
2022-11-08T11:07:48.981Z,45.35
2022-11-08T11:08:49.097Z,45.37
2022-11-08T11:09:49.148Z,45.36
2022-11-08T11:10:49.238Z,45.30
2022-11-08T11:11:49.316Z,45.36
2022-11-08T11:12:49.507Z,45.37
2022-11-08T11:13:49.491Z,45.31
2022-11-08T11:14:49.554Z,45.37
2022-11-08T11:15:49.625Z,45.64
2022-11-08T11:16:49.699Z,45.90
2022-11-08T11:17:49.809Z,45.93
2022-11-08T11:18:49.916Z,45.82
2022-11-08T11:19:49.956Z,45.93
2022-11-08T11:20:50.060Z,45.48
2022-11-08T11:21:50.170Z,45.85
2022-11-08T11:22:50.204Z,45.51
2022-11-08T11:23:50.283Z,45.88
2022-11-08T11:24:50.466Z,45.61
2022-11-08T11:25:50.443Z,45.82
2022-11-08T11:26:50.533Z,45.96
2022-11-08T11:27:50.599Z,45.89
2022-11-08T11:28:50.728Z,45.79
2022-11-08T11:29:50.775Z,45.76
2022-11-08T11:30:50.941Z,46.22
2022-11-08T11:31:56.903Z,46.18
2022-11-08T11:32:51.057Z,46.10
2022-11-08T11:33:51.071Z,45.80
2022-11-08T11:34:51.145Z,46.38
2022-11-08T11:35:51.215Z,46.46
2022-11-08T11:36:51.403Z,46.44
2022-11-08T11:37:51.367Z,46.38
2022-11-08T11:38:51.448Z,46.23
2022-11-08T11:39:51.528Z,46.32
2022-11-08T11:40:51.665Z,46.18
2022-11-08T11:41:51.720Z,46.49
2022-11-08T11:42:51.797Z,46.10
2022-11-08T11:43:51.886Z,46.38
2022-11-08T11:44:51.972Z,46.34
2022-11-08T11:45:52.053Z,46.12
2022-11-08T11:46:52.155Z,45.97
2022-11-08T11:47:52.234Z,46.25
2022-11-08T11:48:52.281Z,46.39
2022-11-08T11:49:52.341Z,45.84
2022-11-08T11:50:52.478Z,46.24
2022-11-08T11:51:52.506Z,45.97
2022-11-08T11:52:52.589Z,46.34
2022-11-08T11:53:52.665Z,46.29
2022-11-08T11:54:52.758Z,45.97
2022-11-08T11:55:52.849Z,45.86
2022-11-08T11:56:52.920Z,45.88
2022-11-08T11:57:53.022Z,45.89
2022-11-08T11:58:53.103Z,46.06
2022-11-08T11:59:53.167Z,46.15
2022-11-08T12:00:53.257Z,45.91
2022-11-08T12:01:53.402Z,46.22
2022-11-08T12:02:59.412Z,45.78
2022-11-08T12:03:53.545Z,46.15
2022-11-08T12:04:53.615Z,46.37
2022-11-08T12:05:53.690Z,46.04
2022-11-08T12:06:53.854Z,45.88
2022-11-08T12:07:53.819Z,45.99
2022-11-08T12:08:53.909Z,45.98
2022-11-08T12:09:54.003Z,46.22
2022-11-08T12:10:54.078Z,46.18
2022-11-08T12:11:54.166Z,46.01
2022-11-08T12:12:54.246Z,46.06
2022-11-08T12:13:54.874Z,46.12
2022-11-08T12:14:54.400Z,45.50
2022-11-08T12:15:54.605Z,45.03
2022-11-08T12:16:54.561Z,45.23
2022-11-08T12:17:54.659Z,45.11
2022-11-08T12:18:54.736Z,45.16
2022-11-08T12:19:54.842Z,44.41
2022-11-08T12:20:54.929Z,44.16
2022-11-08T12:21:55.021Z,44.49
2022-11-08T12:22:55.097Z,44.37
2022-11-08T12:23:55.157Z,44.12
2022-11-08T12:24:55.244Z,44.02
2022-11-08T12:25:55.342Z,44.01
2022-11-08T12:26:55.408Z,44.08
2022-11-08T12:27:55.591Z,43.97
2022-11-08T12:28:55.567Z,44.42
2022-11-08T12:29:55.656Z,44.27
2022-11-08T12:30:55.757Z,44.01
2022-11-08T12:31:55.825Z,43.97
2022-11-08T12:32:55.920Z,44.28
2022-11-08T12:34:02.101Z,44.03
2022-11-08T12:34:56.061Z,43.90
2022-11-08T12:35:56.142Z,43.45
2022-11-08T12:36:56.213Z,43.86
2022-11-08T12:37:56.291Z,43.65
2022-11-08T12:38:56.373Z,43.92
2022-11-08T12:39:56.490Z,44.10
2022-11-08T12:40:56.540Z,43.94
2022-11-08T12:41:56.617Z,43.82
2022-11-08T12:42:56.696Z,43.80
2022-11-08T12:43:56.787Z,44.02
2022-11-08T12:44:56.833Z,43.60
2022-11-08T12:45:56.927Z,43.91
2022-11-08T12:46:57.011Z,43.95
2022-11-08T12:47:57.088Z,43.65
2022-11-08T12:48:57.173Z,43.78
2022-11-08T12:49:57.278Z,43.98
2022-11-08T12:51:01.319Z,44.01
2022-11-08T12:51:57.431Z,44.13
2022-11-08T12:52:57.495Z,44.00
2022-11-08T12:53:57.578Z,44.08
2022-11-08T12:54:57.641Z,43.83
2022-11-08T12:55:57.739Z,44.12
2022-11-08T12:56:57.983Z,44.17